Time;durP1;ratioP1;P1;durP2;ratioP2;P2;SDS_P1;SDS_P2;PMS_P1;PMS_P2;Temp;Humidity;BMP_temperature;BMP_pressure;BME280_temperature;BME280_humidity;BME280_pressure;Samples;Min_cycle;Max_cycle;Signal;HPM_P1;HPM_P2
2022/02/13 00:01:10;;;;;;;14.73;8.07;;;;;;;-2.86;86.96;96056.25;5034955;28;20216;-77
2022/02/13 00:03:36;;;;;;;14.00;7.03;;;;;;;-2.78;86.73;96048.38;5034654;28;20976;-77
2022/02/13 00:06:01;;;;;;;8.60;5.60;;;;;;;-2.73;87.06;96038.03;5037320;28;20174;-77
2022/02/13 00:08:26;;;;;;;9.47;5.80;;;;;;;-2.64;86.32;96036.00;5035041;28;20180;-76
2022/02/13 00:10:52;;;;;;;7.97;4.37;;;;;;;-2.42;84.74;96037.72;5035095;28;20263;-78
2022/02/13 00:13:17;;;;;;;7.30;4.80;;;;;;;-2.44;84.64;96042.06;5035754;28;20185;-77
2022/02/13 00:15:42;;;;;;;7.20;5.37;;;;;;;-2.43;84.84;96036.06;5034017;28;20203;-76
2022/02/13 00:18:08;;;;;;;9.33;5.73;;;;;;;-2.52;84.33;96038.97;5035151;28;20195;-79
2022/02/13 00:20:33;;;;;;;6.87;5.00;;;;;;;-2.51;84.55;96033.81;5035247;28;20231;-77
2022/02/13 00:22:58;;;;;;;8.70;4.73;;;;;;;-2.49;85.08;96033.75;5032748;28;20171;-77
2022/02/13 00:25:24;;;;;;;7.03;5.57;;;;;;;-2.42;84.74;96022.47;5034863;28;20227;-77
2022/02/13 00:27:49;;;;;;;6.30;4.80;;;;;;;-2.53;84.28;96015.25;5036115;28;20206;-76
2022/02/13 00:30:16;;;;;;;8.80;4.77;;;;;;;-2.45;84.40;96022.59;5037180;28;20579;-79
2022/02/13 00:32:43;;;;;;;5.27;3.60;;;;;;;-2.42;84.36;96015.66;5022103;28;20203;-77
2022/02/13 00:35:09;;;;;;;5.90;3.80;;;;;;;-2.42;84.26;96013.13;5034803;28;20182;-77
2022/02/13 00:37:35;;;;;;;5.97;3.83;;;;;;;-2.29;84.21;96006.69;5034367;28;20183;-77
2022/02/13 00:40:00;;;;;;;6.80;3.60;;;;;;;-2.16;83.19;96011.31;5035995;28;20185;-77
2022/02/13 00:42:25;;;;;;;6.13;3.40;;;;;;;-2.16;83.17;96008.75;5034096;28;20230;-76
2022/02/13 00:44:50;;;;;;;4.83;3.40;;;;;;;-2.03;82.24;96010.78;5036074;28;20192;-77
2022/02/13 00:47:16;;;;;;;5.97;3.97;;;;;;;-2.01;82.33;96000.53;5032444;28;20176;-77
2022/02/13 00:49:41;;;;;;;6.10;4.10;;;;;;;-2.00;82.27;96004.72;5033825;28;20184;-77
2022/02/13 00:52:07;;;;;;;8.07;3.90;;;;;;;-1.91;81.24;95998.44;5036401;28;20316;-78
2022/02/13 00:54:35;;;;;;;5.60;4.03;;;;;;;-2.02;81.71;95999.69;5037143;28;20191;-77
2022/02/13 00:57:01;;;;;;;7.53;3.97;;;;;;;-1.98;81.62;96000.41;5018590;28;20205;-78
2022/02/13 00:59:27;;;;;;;4.77;3.70;;;;;;;-2.01;81.93;95993.72;5054115;28;20278;-78
2022/02/13 01:01:52;;;;;;;6.60;3.87;;;;;;;-2.05;82.36;95991.34;5017717;28;20767;-77
2022/02/13 01:04:17;;;;;;;8.40;4.17;;;;;;;-2.15;82.50;95988.34;5017845;28;20180;-77
2022/02/13 01:06:43;;;;;;;6.53;4.33;;;;;;;-2.36;82.83;95999.34;5033850;28;20239;-78
2022/02/13 01:09:08;;;;;;;6.70;4.40;;;;;;;-2.42;84.30;95989.41;5035818;28;20275;-77
2022/02/13 01:11:33;;;;;;;8.17;4.67;;;;;;;-2.43;84.59;95987.75;5034624;28;20208;-78
2022/02/13 01:13:59;;;;;;;7.17;4.27;;;;;;;-2.41;84.52;95989.34;5036935;28;20718;-78
2022/02/13 01:16:26;;;;;;;7.10;4.67;;;;;;;-2.59;84.77;95992.59;5035240;28;20304;-76
2022/02/13 01:18:52;;;;;;;6.77;4.30;;;;;;;-2.71;86.46;95993.88;5036104;28;20197;-77
2022/02/13 01:21:17;;;;;;;6.67;4.37;;;;;;;-2.83;86.53;95986.69;5032377;28;20208;-79
2022/02/13 01:23:43;;;;;;;6.33;4.63;;;;;;;-2.92;87.58;95982.75;5054063;28;20198;-79
2022/02/13 01:26:09;;;;;;;9.87;4.57;;;;;;;-2.96;87.97;95982.94;5040632;28;20190;-79
2022/02/13 01:28:34;;;;;;;6.47;3.53;;;;;;;-2.91;89.16;95976.00;5037045;28;20193;-79
2022/02/13 01:31:02;;;;;;;5.23;3.40;;;;;;;-2.67;89.65;95981.88;5051848;28;20198;-76
2022/02/13 01:33:29;;;;;;;5.93;3.53;;;;;;;-2.59;89.00;95980.69;5052888;28;20174;-77
2022/02/13 01:35:54;;;;;;;5.30;3.20;;;;;;;-2.20;87.23;95982.63;5052252;28;20203;-78
2022/02/13 01:38:19;;;;;;;6.67;2.87;;;;;;;-1.93;86.87;95979.88;5052699;28;20209;-76
2022/02/13 01:40:45;;;;;;;5.00;3.43;;;;;;;-1.89;85.55;95987.31;5033077;28;20211;-77
2022/02/13 01:43:10;;;;;;;3.87;2.73;;;;;;;-1.88;84.93;95983.03;5033209;28;20183;-77
2022/02/13 01:45:35;;;;;;;5.83;3.90;;;;;;;-1.95;85.16;95984.16;5034856;28;20176;-77
2022/02/13 01:48:01;;;;;;;6.63;3.50;;;;;;;-2.07;84.94;95982.94;5032899;28;20186;-77
2022/02/13 01:50:27;;;;;;;6.27;3.70;;;;;;;-2.17;85.39;95982.50;5049925;28;20740;-78
2022/02/13 01:52:52;;;;;;;6.17;4.07;;;;;;;-2.16;86.10;95983.31;5051481;28;20184;-78
2022/02/13 01:55:18;;;;;;;4.83;3.87;;;;;;;-2.21;86.16;95980.94;5054713;28;20183;-77
2022/02/13 01:57:43;;;;;;;6.90;3.70;;;;;;;-2.24;86.90;95977.69;5036395;28;20189;-77
2022/02/13 02:00:09;;;;;;;7.70;4.10;;;;;;;-2.26;86.86;95982.03;5052750;28;20217;-78
2022/02/13 02:02:34;;;;;;;4.83;3.70;;;;;;;-2.29;87.24;95981.25;5036832;28;20189;-79
2022/02/13 02:05:00;;;;;;;5.10;3.73;;;;;;;-2.31;87.09;95987.28;5036071;28;20188;-77
2022/02/13 02:07:25;;;;;;;7.37;4.13;;;;;;;-2.38;87.12;95978.25;5037226;28;20264;-77
2022/02/13 02:09:51;;;;;;;6.43;4.23;;;;;;;-2.50;87.48;95988.88;5052225;28;20177;-78
2022/02/13 02:12:17;;;;;;;8.87;4.10;;;;;;;-2.63;87.72;95981.72;5035955;28;20268;-78
2022/02/13 02:14:42;;;;;;;6.90;4.10;;;;;;;-2.73;88.06;95982.94;5037959;28;20185;-77
2022/02/13 02:17:08;;;;;;;5.77;3.87;;;;;;;-2.87;89.03;95975.00;5055591;28;20758;-77
2022/02/13 02:19:35;;;;;;;6.43;3.77;;;;;;;-2.89;89.89;95975.06;5039161;28;20181;-78
2022/02/13 02:22:01;;;;;;;6.20;3.80;;;;;;;-2.94;89.73;95968.47;5055242;28;20204;-78
2022/02/13 02:24:26;;;;;;;6.03;4.07;;;;;;;-3.01;90.21;95967.03;5056156;28;20173;-77
2022/02/13 02:26:51;;;;;;;6.47;3.87;;;;;;;-2.96;90.92;95963.44;5054662;28;20225;-77
2022/02/13 02:29:17;;;;;;;7.07;4.37;;;;;;;-2.98;91.04;95959.31;5039601;28;20187;-77
2022/02/13 02:31:42;;;;;;;6.93;4.00;;;;;;;-2.90;91.21;95963.22;5054285;28;20724;-78
2022/02/13 02:34:07;;;;;;;5.40;4.20;;;;;;;-2.81;91.74;95964.59;5055872;28;20253;-77
2022/02/13 02:36:33;;;;;;;8.77;4.03;;;;;;;-2.65;92.08;95958.06;5038180;28;20195;-78
2022/02/13 02:38:58;;;;;;;7.87;4.80;;;;;;;-2.62;91.70;95957.13;5039146;28;20191;-79
2022/02/13 02:41:24;;;;;;;6.83;4.27;;;;;;;-2.50;91.85;95964.25;5054966;28;20574;-78
2022/02/13 02:43:49;;;;;;;12.07;3.80;;;;;;;-2.45;91.71;95961.56;5056545;28;20233;-77
2022/02/13 02:46:14;;;;;;;6.27;4.20;;;;;;;-2.41;91.63;95960.53;5056925;28;20182;-79
2022/02/13 02:48:40;;;;;;;9.53;3.93;;;;;;;-2.32;91.56;95960.19;5054669;28;20543;-78
2022/02/13 02:51:06;;;;;;;5.40;4.03;;;;;;;-2.34;91.46;95957.69;5054349;28;20211;-75
2022/02/13 02:53:33;;;;;;;6.80;4.00;;;;;;;-2.33;91.35;95953.44;5039556;28;20203;-77
2022/02/13 02:55:59;;;;;;;9.27;4.50;;;;;;;-2.29;91.82;95943.09;5056227;28;20195;-77
2022/02/13 02:58:25;;;;;;;12.77;4.57;;;;;;;-2.20;91.79;95943.63;5055674;28;20191;-77
2022/02/13 03:00:50;;;;;;;8.10;4.40;;;;;;;-2.12;91.69;95950.06;5057078;28;20208;-78
2022/02/13 03:03:20;;;;;;;8.10;4.60;;;;;;;-2.12;92.17;95944.13;5038512;28;20181;-79
2022/02/13 03:05:48;;;;;;;5.83;4.07;;;;;;;-2.14;92.30;95943.38;5054288;28;20182;-77
2022/02/13 03:08:14;;;;;;;9.33;4.20;;;;;;;-2.00;92.94;95941.94;5054798;28;20653;-77
2022/02/13 03:10:39;;;;;;;8.87;4.23;;;;;;;-1.68;93.06;95933.84;5037394;28;20206;-78
2022/02/13 03:13:04;;;;;;;6.43;4.50;;;;;;;-1.54;92.77;95929.00;5054720;28;20184;-77
2022/02/13 03:15:29;;;;;;;10.77;4.60;;;;;;;-1.40;92.15;95938.63;5053915;28;20191;-77
2022/02/13 03:17:55;;;;;;;6.30;4.03;;;;;;;-1.34;92.20;95925.59;5039855;28;20194;-78
2022/02/13 03:20:20;;;;;;;6.60;4.57;;;;;;;-1.34;92.16;95934.06;5037361;28;20616;-78
2022/02/13 03:22:46;;;;;;;6.67;4.40;;;;;;;-1.32;92.38;95927.19;5054701;28;20623;-78
2022/02/13 03:25:12;;;;;;;8.23;4.43;;;;;;;-1.20;91.28;95933.47;5053957;28;20176;-77
2022/02/13 03:27:37;;;;;;;7.00;3.90;;;;;;;-1.18;91.19;95937.59;5037327;28;20283;-77
2022/02/13 03:30:04;;;;;;;7.10;4.77;;;;;;;-1.07;90.55;95933.75;5053831;28;20237;-77
2022/02/13 03:32:29;;;;;;;6.27;4.47;;;;;;;-1.04;90.00;95936.19;5037939;28;20196;-78
2022/02/13 03:34:55;;;;;;;8.53;4.10;;;;;;;-0.82;89.15;95938.59;5055211;28;20185;-78
2022/02/13 03:37:20;;;;;;;6.73;3.80;;;;;;;-0.74;88.04;95924.59;5037887;28;20662;-78
2022/02/13 03:39:46;;;;;;;7.83;4.10;;;;;;;-0.77;87.58;95924.75;5056145;28;20627;-78
2022/02/13 03:42:12;;;;;;;10.57;4.97;;;;;;;-0.74;87.73;95921.22;5055370;28;20217;-78
2022/02/13 03:44:38;;;;;;;7.57;4.50;;;;;;;-0.69;87.76;95927.78;5056700;28;20177;-78
2022/02/13 03:47:04;;;;;;;9.23;4.30;;;;;;;-0.61;87.05;95933.34;5054194;28;20834;-78
2022/02/13 03:49:30;;;;;;;9.63;3.63;;;;;;;-0.53;86.39;95930.44;5055595;28;20178;-77
2022/02/13 03:51:55;;;;;;;6.93;3.63;;;;;;;-0.52;86.45;95923.63;5055285;28;20211;-78
2022/02/13 03:54:21;;;;;;;6.70;3.90;;;;;;;-0.49;86.43;95926.84;5055655;28;20184;-77
2022/02/13 03:56:46;;;;;;;8.53;3.83;;;;;;;-0.48;85.98;95932.78;5039418;28;20205;-78
2022/02/13 03:59:11;;;;;;;7.17;4.00;;;;;;;-0.47;86.18;95921.66;5055787;28;20178;-79
2022/02/13 04:01:37;;;;;;;8.70;4.03;;;;;;;-0.47;85.85;95926.75;5038777;28;20200;-78
2022/02/13 04:04:02;;;;;;;6.37;3.80;;;;;;;-0.45;86.18;95924.97;5055316;28;20180;-78
2022/02/13 04:06:27;;;;;;;6.07;4.03;;;;;;;-0.49;85.79;95929.41;5053114;28;20182;-78
2022/02/13 04:08:53;;;;;;;5.70;3.97;;;;;;;-0.53;85.95;95930.44;5054132;28;20173;-78
2022/02/13 04:11:18;;;;;;;6.17;3.90;;;;;;;-0.58;85.85;95925.53;5053011;28;20197;-78
2022/02/13 04:13:43;;;;;;;7.63;4.47;;;;;;;-0.54;86.35;95938.97;5055371;28;20191;-78
2022/02/13 04:16:09;;;;;;;6.37;3.67;;;;;;;-0.53;85.86;95940.66;5036094;28;20195;-77
2022/02/13 04:18:34;;;;;;;9.00;4.80;;;;;;;-0.53;85.68;95950.00;5055365;28;20218;-76
2022/02/13 04:20:59;;;;;;;5.43;3.90;;;;;;;-0.52;85.79;95939.75;5054640;28;20201;-77
2022/02/13 04:23:27;;;;;;;6.53;3.90;;;;;;;-0.48;85.83;95938.69;5054167;28;20280;-77
2022/02/13 04:25:53;;;;;;;7.57;4.20;;;;;;;-0.42;85.98;95935.88;5055407;28;20204;-77
2022/02/13 04:28:18;;;;;;;15.60;4.77;;;;;;;-0.39;85.52;95942.53;5054534;28;20176;-78
2022/02/13 04:30:43;;;;;;;10.33;4.33;;;;;;;-0.44;86.05;95937.69;5053427;28;20196;-78
2022/02/13 04:33:08;;;;;;;7.57;3.77;;;;;;;-0.35;85.51;95931.31;5035141;28;20550;-77
2022/02/13 04:35:35;;;;;;;9.90;4.40;;;;;;;-0.31;85.40;95925.97;5035608;28;20681;-78
2022/02/13 04:38:01;;;;;;;6.33;3.73;;;;;;;-0.24;85.30;95928.25;5053652;28;20567;-76
2022/02/13 04:40:26;;;;;;;4.67;3.60;;;;;;;-0.24;85.29;95925.69;5035854;28;20198;-78
2022/02/13 04:42:51;;;;;;;7.90;3.90;;;;;;;-0.19;84.61;95934.78;5051845;28;20177;-78
2022/02/13 04:45:17;;;;;;;7.47;3.77;;;;;;;-0.16;84.72;95931.25;5037845;28;20177;-78
2022/02/13 04:47:42;;;;;;;6.90;3.63;;;;;;;-0.13;84.48;95931.94;5037701;28;20182;-79
2022/02/13 04:50:08;;;;;;;7.90;4.00;;;;;;;-0.17;84.23;95940.66;5038104;28;20220;-79
2022/02/13 04:52:34;;;;;;;4.60;4.10;;;;;;;-0.25;84.40;95931.72;5054447;28;20557;-79
2022/02/13 04:54:59;;;;;;;5.23;4.13;;;;;;;-0.31;85.07;95922.59;5055150;28;20181;-79
2022/02/13 04:57:25;;;;;;;6.77;4.10;;;;;;;-0.39;85.08;95928.06;5038346;28;20204;-79
2022/02/13 04:59:50;;;;;;;7.10;4.13;;;;;;;-0.37;84.91;95918.59;5054152;28;20188;-78
2022/02/13 05:02:16;;;;;;;4.87;3.80;;;;;;;-0.42;85.11;95920.56;5055465;28;20196;-79
2022/02/13 05:04:42;;;;;;;8.87;4.20;;;;;;;-0.50;85.51;95916.72;5055016;28;20587;-79
2022/02/13 05:07:07;;;;;;;5.07;3.90;;;;;;;-0.61;85.74;95915.50;5038230;28;20181;-79
2022/02/13 05:09:33;;;;;;;6.37;3.97;;;;;;;-0.68;86.42;95913.28;5054500;28;20185;-79
2022/02/13 05:11:58;;;;;;;8.40;4.63;;;;;;;-0.73;86.52;95910.94;5054163;28;20270;-79
2022/02/13 05:14:24;;;;;;;9.03;4.10;;;;;;;-0.76;86.40;95900.88;5055629;28;20185;-79
2022/02/13 05:16:50;;;;;;;6.63;4.37;;;;;;;-0.77;86.80;95900.97;5037825;28;20219;-78
2022/02/13 05:19:15;;;;;;;8.70;4.33;;;;;;;-0.88;86.64;95902.28;5054516;28;20212;-79
2022/02/13 05:21:41;;;;;;;10.13;4.53;;;;;;;-0.99;87.06;95894.28;5054357;28;20220;-79
2022/02/13 05:24:06;;;;;;;5.47;4.10;;;;;;;-0.94;87.47;95892.34;5054751;28;20566;-79
2022/02/13 05:26:31;;;;;;;6.10;3.97;;;;;;;-0.90;87.21;95895.59;5054919;28;20202;-78
2022/02/13 05:28:57;;;;;;;10.77;4.43;;;;;;;-0.99;87.33;95889.19;5042436;28;20247;-79
2022/02/13 05:31:26;;;;;;;7.07;3.97;;;;;;;-1.08;87.73;95891.31;5041256;28;20204;-79
2022/02/13 05:33:51;;;;;;;8.40;4.73;;;;;;;-1.09;87.70;95887.94;5042251;28;20275;-79
2022/02/13 05:36:17;;;;;;;6.40;3.93;;;;;;;-1.06;88.51;95890.38;5041529;28;20299;-79
2022/02/13 05:38:42;;;;;;;8.23;4.23;;;;;;;-1.12;88.61;95884.72;5058513;28;20598;-79
2022/02/13 05:41:07;;;;;;;8.80;4.83;;;;;;;-1.13;89.17;95886.44;5041337;28;20212;-79
2022/02/13 05:43:32;;;;;;;5.93;4.10;;;;;;;-1.12;89.04;95883.00;5042026;28;20202;-79
2022/02/13 05:45:58;;;;;;;8.13;4.03;;;;;;;-1.07;88.89;95886.16;5059353;28;20180;-78
2022/02/13 05:48:25;;;;;;;5.97;4.83;;;;;;;-1.06;88.91;95877.63;5040941;28;20184;-78
2022/02/13 05:50:51;;;;;;;8.47;4.60;;;;;;;-1.05;88.94;95870.81;5058252;28;20215;-78
2022/02/13 05:53:16;;;;;;;9.03;4.73;;;;;;;-1.02;89.09;95871.47;5057729;28;20241;-78
2022/02/13 05:55:42;;;;;;;10.03;4.27;;;;;;;-1.08;89.21;95870.94;5041312;28;20278;-79
2022/02/13 05:58:07;;;;;;;9.07;4.30;;;;;;;-1.19;89.88;95866.31;5058628;28;20194;-78
2022/02/13 06:00:32;;;;;;;7.77;4.97;;;;;;;-1.20;90.07;95864.66;5040962;28;20232;-77
2022/02/13 06:02:58;;;;;;;8.17;4.43;;;;;;;-1.19;89.87;95858.69;5055226;28;20693;-77
2022/02/13 06:05:23;;;;;;;7.67;4.60;;;;;;;-1.20;90.05;95862.13;5057021;28;20179;-77
2022/02/13 06:07:48;;;;;;;12.33;5.00;;;;;;;-1.32;90.83;95855.03;5039670;28;20179;-78
2022/02/13 06:10:13;;;;;;;8.23;4.40;;;;;;;-1.27;91.54;95860.75;5056973;28;20207;-78
2022/02/13 06:12:39;;;;;;;7.70;4.23;;;;;;;-1.32;91.43;95860.97;5056090;28;20543;-77
2022/02/13 06:15:05;;;;;;;9.00;4.67;;;;;;;-1.17;91.14;95857.69;5038740;28;20189;-78
2022/02/13 06:17:30;;;;;;;7.97;4.40;;;;;;;-1.26;91.72;95853.03;5038437;28;20209;-77
2022/02/13 06:19:56;;;;;;;9.27;5.53;;;;;;;-1.18;91.38;95852.69;5037902;28;20646;-77
2022/02/13 06:22:21;;;;;;;6.30;4.43;;;;;;;-1.18;91.37;95850.13;5037273;28;20194;-77
2022/02/13 06:24:47;;;;;;;7.77;5.03;;;;;;;-0.96;90.26;95847.44;5055112;28;20186;-78
2022/02/13 06:27:12;;;;;;;6.97;4.57;;;;;;;-0.84;89.10;95846.03;5038208;28;20694;-78
2022/02/13 06:29:38;;;;;;;7.80;4.27;;;;;;;-0.77;89.48;95837.22;5055142;28;20286;-78
2022/02/13 06:32:03;;;;;;;9.20;4.47;;;;;;;-0.82;89.50;95842.50;5055511;28;20567;-78
2022/02/13 06:34:29;;;;;;;7.77;4.60;;;;;;;-0.80;89.51;95848.38;5056097;28;20201;-78
2022/02/13 06:36:54;;;;;;;11.13;4.97;;;;;;;-0.80;89.34;95845.81;5054408;28;20509;-78
2022/02/13 06:39:19;;;;;;;11.67;4.40;;;;;;;-0.63;89.34;95840.75;5055450;28;20664;-77
2022/02/13 06:41:45;;;;;;;6.00;4.80;;;;;;;-0.59;88.87;95844.00;5042947;28;20237;-78
2022/02/13 06:44:10;;;;;;;7.80;4.53;;;;;;;-0.54;88.58;95839.47;5034884;28;20185;-78
2022/02/13 06:46:35;;;;;;;7.83;4.93;;;;;;;-0.50;88.38;95842.72;5034966;28;20174;-78
2022/02/13 06:49:01;;;;;;;6.80;4.93;;;;;;;-0.46;88.57;95834.84;5016085;28;20685;-78
2022/02/13 06:51:26;;;;;;;12.33;5.23;;;;;;;-0.40;88.23;95839.66;5033543;28;20626;-77
2022/02/13 06:53:51;;;;;;;7.87;4.60;;;;;;;-0.41;88.41;95835.47;5035341;28;20189;-78
2022/02/13 06:56:17;;;;;;;7.43;4.87;;;;;;;-0.31;88.76;95836.66;5033109;28;20200;-79
2022/02/13 06:58:42;;;;;;;12.27;4.53;;;;;;;-0.24;88.42;95837.19;5034294;28;20546;-79
2022/02/13 07:01:10;;;;;;;13.80;5.33;;;;;;;-0.18;88.49;95836.03;5033328;28;20202;-78
2022/02/13 07:03:36;;;;;;;10.27;5.13;;;;;;;-0.16;87.99;95835.09;5033618;28;20178;-76
2022/02/13 07:06:02;;;;;;;8.47;5.20;;;;;;;-0.02;87.87;95842.06;5032641;28;20541;-77
2022/02/13 07:08:28;;;;;;;13.70;5.77;;;;;;;-0.04;88.04;95838.75;5032896;28;20667;-78
2022/02/13 07:10:54;;;;;;;9.57;5.50;;;;;;;0.07;87.60;95840.75;5033245;28;20196;-78
2022/02/13 07:13:19;;;;;;;10.57;6.37;;;;;;;0.05;87.61;95834.91;5032389;28;20177;-79
2022/02/13 07:15:44;;;;;;;8.03;5.77;;;;;;;0.01;86.66;95846.19;5031545;28;20191;-78
2022/02/13 07:18:10;;;;;;;16.17;5.50;;;;;;;-0.09;86.07;95845.81;5034297;28;20177;-76
2022/02/13 07:20:35;;;;;;;9.37;5.10;;;;;;;-0.23;86.33;95843.94;5032920;28;20216;-78
2022/02/13 07:23:00;;;;;;;6.23;4.60;;;;;;;-0.31;86.17;95834.09;5014493;28;20194;-79
2022/02/13 07:25:25;;;;;;;7.93;5.47;;;;;;;-0.37;86.55;95841.22;5028321;28;20192;-79
2022/02/13 07:27:51;;;;;;;8.63;5.20;;;;;;;-0.34;86.17;95836.00;5031702;28;20538;-78
2022/02/13 07:30:16;;;;;;;8.63;5.03;;;;;;;-0.40;86.75;95837.09;5031322;28;20198;-79
2022/02/13 07:32:43;;;;;;;12.93;6.67;;;;;;;-0.34;87.15;95836.00;5032151;28;20713;-79
2022/02/13 07:35:09;;;;;;;10.30;6.40;;;;;;;-0.32;86.88;95831.63;5015380;28;20185;-79
2022/02/13 07:37:34;;;;;;;8.73;5.27;;;;;;;-0.22;86.98;95834.56;5015128;28;20205;-79
2022/02/13 07:40:00;;;;;;;8.77;6.57;;;;;;;-0.21;86.51;95831.94;5032700;28;20183;-79
2022/02/13 07:42:25;;;;;;;11.73;5.97;;;;;;;-0.20;87.21;95832.75;5030793;28;20236;-79
2022/02/13 07:44:50;;;;;;;7.70;5.07;;;;;;;-0.15;87.01;95826.53;5031325;28;20187;-79
2022/02/13 07:47:16;;;;;;;8.53;6.10;;;;;;;-0.08;86.71;95827.88;5014717;28;20176;-79
2022/02/13 07:49:41;;;;;;;9.50;7.73;;;;;;;-0.09;86.42;95826.22;5031591;28;20228;-79
2022/02/13 07:52:07;;;;;;;7.00;5.73;;;;;;;-0.13;86.89;95824.72;5030681;28;20214;-79
2022/02/13 07:54:32;;;;;;;16.53;8.50;;;;;;;-0.12;86.87;95825.53;5031567;28;20187;-77
2022/02/13 07:56:58;;;;;;;12.60;8.13;;;;;;;-0.07;86.72;95826.16;5014658;28;20667;-79
2022/02/13 07:59:23;;;;;;;16.10;7.30;;;;;;;-0.03;86.91;95825.91;5030707;28;20675;-79
2022/02/13 08:01:48;;;;;;;18.13;9.53;;;;;;;0.04;86.73;95823.88;5014246;28;20206;-80
2022/02/13 08:04:13;;;;;;;10.10;6.60;;;;;;;0.14;87.03;95822.50;5014574;28;20661;-79
2022/02/13 08:06:39;;;;;;;14.17;7.50;;;;;;;0.16;86.70;95827.53;5013566;28;20532;-78
2022/02/13 08:09:04;;;;;;;16.43;6.77;;;;;;;0.27;86.02;95818.44;5029988;28;20252;-80
2022/02/13 08:11:29;;;;;;;20.90;10.60;;;;;;;0.42;86.10;95813.44;5042789;28;20204;-78
2022/02/13 08:13:56;;;;;;;18.33;8.70;;;;;;;0.44;86.01;95821.84;5046488;28;20196;-78
2022/02/13 08:16:21;;;;;;;16.83;7.87;;;;;;;0.57;85.84;95820.31;5011611;28;20263;-77
2022/02/13 08:18:46;;;;;;;26.60;12.83;;;;;;;0.65;85.32;95823.28;5027763;28;21036;-78
2022/02/13 08:21:12;;;;;;;24.20;11.70;;;;;;;0.64;85.17;95819.09;5028516;28;20723;-77
2022/02/13 08:23:37;;;;;;;27.63;13.30;;;;;;;0.73;84.68;95822.88;5027531;28;20750;-77
2022/02/13 08:26:03;;;;;;;18.43;9.37;;;;;;;0.73;84.68;95826.25;5028380;28;20202;-77
2022/02/13 08:28:32;;;;;;;17.87;9.00;;;;;;;0.80;83.81;95821.66;5028690;28;20268;-78
2022/02/13 08:30:58;;;;;;;18.83;10.27;;;;;;;0.82;84.14;95820.66;5012651;28;20304;-77
2022/02/13 08:33:23;;;;;;;21.07;10.43;;;;;;;0.91;84.29;95824.44;5009897;28;20178;-77
2022/02/13 08:35:49;;;;;;;16.63;7.40;;;;;;;1.01;83.73;95824.78;5030279;28;20206;-78
2022/02/13 08:38:15;;;;;;;20.23;10.17;;;;;;;1.11;83.96;95823.38;5029406;28;20564;-78
2022/02/13 08:40:40;;;;;;;19.30;8.83;;;;;;;1.23;83.26;95816.75;5031916;28;20194;-77
2022/02/13 08:43:06;;;;;;;12.67;8.07;;;;;;;1.27;82.96;95819.06;5030209;28;20640;-77
2022/02/13 08:45:32;;;;;;;17.10;10.30;;;;;;;1.32;82.63;95818.78;5031725;28;20221;-77
2022/02/13 08:47:58;;;;;;;17.50;9.63;;;;;;;1.35;82.50;95824.59;5031867;28;20221;-77
2022/02/13 08:50:24;;;;;;;22.23;12.17;;;;;;;1.53;82.33;95821.91;5031368;28;20695;-77
2022/02/13 08:52:50;;;;;;;29.93;14.23;;;;;;;1.59;82.17;95817.28;5030033;28;20179;-77
2022/02/13 08:55:16;;;;;;;34.77;16.23;;;;;;;1.63;81.71;95817.91;5015433;28;20206;-77
2022/02/13 08:57:42;;;;;;;10.27;6.77;;;;;;;1.78;81.05;95811.13;5013712;28;20625;-78
2022/02/13 09:00:08;;;;;;;18.50;11.33;;;;;;;1.80;80.62;95812.66;5030345;28;20229;-78
2022/02/13 09:02:34;;;;;;;12.17;7.23;;;;;;;1.94;80.87;95811.84;5034307;28;20721;-77
2022/02/13 09:05:00;;;;;;;12.47;7.77;;;;;;;1.97;80.96;95802.28;5020211;28;20189;-77
2022/02/13 09:07:26;;;;;;;20.67;10.20;;;;;;;2.03;80.66;95807.94;5021074;28;20177;-77
2022/02/13 09:09:51;;;;;;;14.17;8.53;;;;;;;2.16;80.40;95807.16;5038028;28;20178;-79
2022/02/13 09:12:19;;;;;;;15.40;8.13;;;;;;;2.24;79.87;95807.53;5021575;28;20268;-78
2022/02/13 09:14:47;;;;;;;18.13;9.20;;;;;;;2.36;79.54;95816.22;5039007;28;20174;-77
2022/02/13 09:17:12;;;;;;;20.50;10.57;;;;;;;2.46;79.61;95812.19;5037973;28;20718;-77
2022/02/13 09:19:38;;;;;;;13.60;7.80;;;;;;;2.54;78.95;95802.28;5037470;28;20181;-77
2022/02/13 09:22:03;;;;;;;12.53;7.40;;;;;;;2.64;79.16;95802.56;5036704;28;20229;-76
2022/02/13 09:24:29;;;;;;;10.77;6.53;;;;;;;2.69;78.54;95795.41;5035273;28;20181;-78
2022/02/13 09:26:54;;;;;;;13.77;7.63;;;;;;;2.79;78.44;95793.94;5020569;28;20269;-78
2022/02/13 09:29:20;;;;;;;9.17;6.23;;;;;;;2.91;78.07;95788.97;5038676;28;20182;-78
2022/02/13 09:31:45;;;;;;;11.90;7.13;;;;;;;2.96;77.67;95781.81;5036396;28;20567;-78
2022/02/13 09:34:13;;;;;;;9.57;6.50;;;;;;;3.03;77.27;95765.13;5038681;28;20671;-78
2022/02/13 09:36:39;;;;;;;11.00;6.87;;;;;;;3.20;77.31;95764.88;5038553;28;20256;-78
2022/02/13 09:39:04;;;;;;;11.03;6.30;;;;;;;3.22;77.14;95767.34;5038960;28;20257;-79
2022/02/13 09:41:29;;;;;;;13.73;7.37;;;;;;;3.29;76.90;95763.47;5039719;28;20203;-78
2022/02/13 09:43:56;;;;;;;9.33;6.20;;;;;;;3.42;76.47;95757.44;5023987;28;20536;-78
2022/02/13 09:46:23;;;;;;;8.90;6.10;;;;;;;3.50;75.74;95759.50;5023438;28;20527;-78
2022/02/13 09:48:51;;;;;;;15.87;6.40;;;;;;;3.66;75.62;95756.78;5038605;28;20171;-78
2022/02/13 09:51:16;;;;;;;12.40;6.43;;;;;;;3.74;74.64;95753.72;5037867;28;20574;-78
2022/02/13 09:53:41;;;;;;;9.20;6.13;;;;;;;3.74;75.31;95748.56;5021808;28;20187;-77
2022/02/13 09:56:07;;;;;;;9.13;6.10;;;;;;;3.88;74.25;95756.16;5037897;28;20195;-78
2022/02/13 09:58:35;;;;;;;11.90;7.07;;;;;;;3.93;74.00;95751.56;5036925;28;20210;-78
2022/02/13 10:01:07;;;;;;;8.33;5.90;;;;;;;3.96;73.10;95759.06;5037572;28;20281;-77
2022/02/13 10:03:42;;;;;;;8.83;6.53;;;;;;;4.05;72.86;95762.75;5020836;28;20236;-78
2022/02/13 10:06:13;;;;;;;13.03;7.20;;;;;;;4.05;72.66;95753.31;5037506;28;20173;-78
2022/02/13 10:08:43;;;;;;;11.10;7.13;;;;;;;4.16;72.49;95757.75;5037815;28;20186;-78
2022/02/13 10:11:14;;;;;;;9.20;6.30;;;;;;;4.18;71.98;95749.00;5037148;28;20291;-78
2022/02/13 10:13:43;;;;;;;11.53;6.93;;;;;;;4.24;72.17;95755.44;5035607;28;20229;-77
2022/02/13 10:16:30;;;;;;;10.17;6.47;;;;;;;4.25;71.67;95749.41;5034217;28;20568;-78
2022/02/13 10:18:57;;;;;;;12.67;6.97;;;;;;;4.26;71.38;95746.72;5018762;28;20182;-78
2022/02/13 10:21:35;;;;;;;12.63;7.10;;;;;;;4.32;70.77;95740.31;5034407;28;20205;-77
2022/02/13 10:24:33;;;;;;;12.37;7.37;;;;;;;4.44;70.86;95738.69;5035545;28;20178;-77
2022/02/13 10:27:04;;;;;;;13.10;6.60;;;;;;;4.53;70.46;95738.06;5019893;28;20318;-79
2022/02/13 10:29:31;;;;;;;11.13;6.60;;;;;;;4.62;69.83;95740.00;5054274;28;20218;-78
2022/02/13 10:32:17;;;;;;;11.03;6.43;;;;;;;4.67;68.81;95735.31;5036923;28;20198;-79
2022/02/13 10:35:01;;;;;;;13.70;7.23;;;;;;;4.73;68.13;95726.38;5038167;28;20180;-78
2022/02/13 10:37:55;;;;;;;11.50;6.87;;;;;;;4.67;69.16;95726.78;5038073;28;20273;-79
2022/02/13 10:40:25;;;;;;;11.03;6.80;;;;;;;4.73;68.60;95721.22;5038549;28;20198;-79
2022/02/13 10:43:11;;;;;;;8.47;6.50;;;;;;;4.80;69.34;95720.69;5021508;28;20193;-78
2022/02/13 10:45:39;;;;;;;13.93;6.80;;;;;;;4.90;68.59;95720.03;5039020;28;20204;-79
2022/02/13 10:48:06;;;;;;;11.03;7.37;;;;;;;5.01;68.44;95713.19;5022296;28;20265;-79
2022/02/13 10:50:35;;;;;;;9.77;6.03;;;;;;;5.08;67.12;95711.81;5039517;28;20218;-79
2022/02/13 10:53:01;;;;;;;13.30;7.10;;;;;;;5.23;66.23;95704.75;5038245;28;20205;-78
2022/02/13 10:55:28;;;;;;;9.67;6.63;;;;;;;5.25;66.17;95695.16;5037855;28;20698;-78
2022/02/13 10:57:54;;;;;;;11.07;6.83;;;;;;;5.33;66.36;95695.44;5019441;28;20642;-78
2022/02/13 11:00:20;;;;;;;9.40;6.60;;;;;;;5.43;66.81;95689.59;5021538;28;20698;-77
2022/02/13 11:02:46;;;;;;;11.43;6.70;;;;;;;5.40;65.14;95677.78;5019307;28;20225;-77
2022/02/13 11:05:12;;;;;;;10.70;6.60;;;;;;;5.51;65.27;95680.38;5020676;28;20181;-77
2022/02/13 11:07:43;;;;;;;9.50;6.03;;;;;;;5.58;65.32;95673.03;5038916;28;20193;-78
2022/02/13 11:10:12;;;;;;;10.53;6.00;;;;;;;5.49;65.99;95668.56;5018210;28;20186;-79
2022/02/13 11:12:38;;;;;;;8.33;6.00;;;;;;;5.61;65.34;95670.22;5019310;28;20644;-78
2022/02/13 11:15:14;;;;;;;9.47;6.57;;;;;;;5.72;64.62;95667.63;5035851;28;20193;-77
2022/02/13 11:17:42;;;;;;;10.53;6.50;;;;;;;5.81;64.78;95666.13;5019895;28;20213;-78
2022/02/13 11:20:10;;;;;;;9.77;6.77;;;;;;;5.94;64.31;95659.16;5036352;28;20228;-78
2022/02/13 11:22:35;;;;;;;10.10;6.13;;;;;;;5.94;63.53;95652.25;5020833;28;20648;-80
2022/02/13 11:25:01;;;;;;;9.43;5.63;;;;;;;5.95;62.40;95656.47;5033926;28;20178;-79
2022/02/13 11:27:26;;;;;;;7.93;5.93;;;;;;;5.99;62.15;95649.31;5017994;28;20175;-79
2022/02/13 11:29:53;;;;;;;8.33;5.77;;;;;;;6.02;62.94;95646.50;5018437;28;20186;-78